Time;durP1;ratioP1;P1;durP2;ratioP2;P2;SDS_P1;SDS_P2;PMS_P1;PMS_P2;Temp;Humidity;BMP_temperature;BMP_pressure;BME280_temperature;BME280_humidity;BME280_pressure;Samples;Min_cycle;Max_cycle;Signal;HPM_P1;HPM_P2
2021/01/23 00:05:36;;;;;;;9.77;6.63;;;2.30;91.20;;;;;;5051651;28;20342;-87
2021/01/23 00:08:32;;;;;;;;;;;;;;;;;;;;;
2021/01/23 00:11:10;;;;;;;;;;;;;;;;;;;;;
2021/01/23 00:13:39;;;;;;;11.43;6.47;;;2.30;91.20;;;;;;5047434;28;20029;-88
2021/01/23 00:16:15;;;;;;;;;;;;;;;;;;;;;
2021/01/23 00:21:41;;;;;;;9.35;6.40;;;2.30;91.30;;;;;;5041585;28;20040;-87
2021/01/23 00:26:57;;;;;;;13.40;6.60;;;2.30;91.30;;;;;;5046048;28;20108;-87
2021/01/23 00:29:29;;;;;;;13.60;6.47;;;2.30;91.30;;;;;;5035501;28;20044;-89
2021/01/23 00:32:05;;;;;;;12.50;7.30;;;2.40;91.30;;;;;;5039899;28;20040;-88
2021/01/23 00:35:02;;;;;;;11.35;6.50;;;2.40;91.30;;;;;;5053215;28;20033;-87
2021/01/23 00:38:22;;;;;;;;;;;;;;;;;;;;;
2021/01/23 00:41:04;;;;;;;14.25;8.13;;;2.40;91.30;;;;;;5047200;28;20068;-87
2021/01/23 00:43:41;;;;;;;9.95;6.07;;;2.40;91.30;;;;;;5032587;28;20022;-86
2021/01/23 00:46:19;;;;;;;11.95;6.43;;;2.40;91.30;;;;;;5034564;28;20032;-88
2021/01/23 00:49:15;;;;;;;;;;;;;;;;;;;;;
2021/01/23 00:52:04;;;;;;;9.77;6.45;;;2.40;91.40;;;;;;5050992;28;20035;-87
2021/01/23 00:54:44;;;;;;;11.38;6.20;;;2.40;91.30;;;;;;5020385;28;20038;-87
2021/01/23 00:57:29;;;;;;;9.85;5.75;;;2.40;91.30;;;;;;5020155;28;20033;-86
2021/01/23 01:00:15;;;;;;;10.43;6.18;;;2.50;91.30;;;;;;5052458;28;20511;-86
2021/01/23 01:02:56;;;;;;;11.18;6.90;;;2.50;91.30;;;;;;5043719;28;20056;-87
2021/01/23 01:05:29;;;;;;;11.60;6.85;;;2.50;91.30;;;;;;5032376;28;20064;-87
2021/01/23 01:08:08;;;;;;;;;;;;;;;;;;;;;
2021/01/23 01:10:46;;;;;;;;;;;;;;;;;;;;;
2021/01/23 01:13:28;;;;;;;10.75;6.25;;;2.60;91.40;;;;;;5044448;28;20026;-87
2021/01/23 01:16:35;;;;;;;12.65;6.55;;;2.50;91.40;;;;;;5019956;28;20032;-87
2021/01/23 01:19:10;;;;;;;;;;;;;;;;;;;;;
2021/01/23 01:21:38;;;;;;;8.98;5.35;;;2.60;91.40;;;;;;5053664;28;20025;-86
2021/01/23 01:24:16;;;;;;;13.02;7.28;;;2.60;91.40;;;;;;5052107;28;20483;-87
2021/01/23 01:26:51;;;;;;;11.65;6.32;;;2.60;91.40;;;;;;5031368;28;20083;-86
2021/01/23 01:29:32;;;;;;;11.00;6.47;;;2.60;91.30;;;;;;5052277;28;20384;-87
2021/01/23 01:32:00;;;;;;;11.43;6.40;;;2.60;91.40;;;;;;5032702;28;20636;-86
2021/01/23 01:34:32;;;;;;;11.57;6.22;;;2.60;91.40;;;;;;5032694;28;20279;-86
2021/01/23 01:36:58;;;;;;;15.10;6.65;;;2.60;91.40;;;;;;5050384;28;20108;-87
2021/01/23 01:39:37;;;;;;;;;;;;;;;;;;;;;
2021/01/23 01:42:10;;;;;;;8.95;6.60;;;2.70;91.40;;;;;;5052244;28;20100;-86
2021/01/23 01:44:36;;;;;;;11.50;7.15;;;2.60;91.40;;;;;;5038065;28;20092;-87
2021/01/23 01:47:09;;;;;;;12.70;6.90;;;2.70;91.40;;;;;;5044691;28;20321;-86
2021/01/23 01:49:41;;;;;;;11.38;7.25;;;2.70;91.40;;;;;;5056517;28;20025;-86
2021/01/23 01:52:19;;;;;;;13.27;7.15;;;2.70;91.40;;;;;;5062519;28;20083;-86
2021/01/23 01:54:55;;;;;;;;;;;;;;;;;;;;;
2021/01/23 02:00:20;;;;;;;14.07;7.95;;;2.70;91.40;;;;;;5051018;28;20046;-86
2021/01/23 02:03:09;;;;;;;11.63;7.07;;;2.70;91.40;;;;;;5018195;28;20145;-86
2021/01/23 02:06:15;;;;;;;;;;;;;;;;;;;;;
2021/01/23 02:09:42;;;;;;;;;;;;;;;;;;;;;
2021/01/23 02:13:01;;;;;;;;;;;;;;;;;;;;;
2021/01/23 02:15:35;;;;;;;13.38;7.70;;;2.70;91.40;;;;;;5015324;28;20048;-86
2021/01/23 02:18:14;;;;;;;11.75;7.65;;;2.70;91.40;;;;;;5028379;28;20053;-86
2021/01/23 02:21:16;;;;;;;12.38;8.60;;;2.70;91.40;;;;;;5011935;28;20026;-86
2021/01/23 02:27:54;;;;;;;12.50;8.10;;;2.70;91.40;;;;;;5019090;28;20030;-86
2021/01/23 02:30:42;;;;;;;16.27;8.15;;;2.70;91.50;;;;;;4976592;28;20159;-86
2021/01/23 02:33:31;;;;;;;11.57;7.53;;;2.70;91.40;;;;;;5017183;28;20032;-87
2021/01/23 02:36:25;;;;;;;11.73;7.57;;;2.70;91.40;;;;;;5023454;28;20036;-86
2021/01/23 02:39:05;;;;;;;10.60;7.13;;;2.70;91.50;;;;;;5027482;28;20056;-87
2021/01/23 02:42:07;;;;;;;;;;;;;;;;;;;;;
2021/01/23 02:45:04;;;;;;;9.82;7.55;;;2.70;91.50;;;;;;5024947;28;20041;-86
2021/01/23 02:47:46;;;;;;;;;;;;;;;;;;;;;
2021/01/23 02:50:35;;;;;;;11.75;7.43;;;2.80;91.50;;;;;;5022147;28;20366;-87
2021/01/23 02:53:23;;;;;;;9.93;7.00;;;2.70;91.50;;;;;;5000489;28;20069;-87
2021/01/23 02:56:05;;;;;;;9.63;7.22;;;2.80;91.50;;;;;;5014599;28;20025;-88
2021/01/23 02:58:39;;;;;;;;;;;2.80;91.50;;;;;;5020433;28;20112;-86
2021/01/23 03:01:42;;;;;;;11.85;6.63;;;2.90;91.50;;;;;;5045677;28;19917;-86
2021/01/23 03:04:14;;;;;;;8.82;6.53;;;2.90;91.50;;;;;;5044825;28;20029;-88
2021/01/23 03:06:41;;;;;;;11.73;7.32;;;2.80;91.40;;;;;;5039348;28;20029;-86
2021/01/23 03:09:49;;;;;;;11.38;7.30;;;2.90;91.50;;;;;;5054839;28;20028;-87
2021/01/23 03:12:15;;;;;;;10.38;6.80;;;2.90;91.50;;;;;;5042364;28;20079;-86
2021/01/23 03:14:46;;;;;;;11.45;6.70;;;2.90;91.50;;;;;;5061214;28;20009;-90
2021/01/23 03:17:23;;;;;;;10.23;6.40;;;2.90;91.50;;;;;;5086262;28;20017;-86
2021/01/23 03:20:31;;;;;;;8.50;5.78;;;3.00;91.50;;;;;;5072281;28;20029;-91
2021/01/23 03:26:30;;;;;;;;;;;;;;;;;;;;;
2021/01/23 03:29:09;;;;;;;9.85;6.55;;;3.00;91.60;;;;;;5046324;28;20090;-87
2021/01/23 03:31:47;;;;;;;11.80;7.70;;;3.10;91.60;;;;;;5065375;28;20030;-87
2021/01/23 03:34:22;;;;;;;9.60;6.10;;;3.10;91.60;;;;;;5026530;28;20029;-86
2021/01/23 03:36:54;;;;;;;9.23;6.22;;;3.10;91.60;;;;;;5051196;28;20452;-87
2021/01/23 03:39:33;;;;;;;;;;;;;;;;;;;;;
2021/01/23 03:42:02;;;;;;;12.98;6.75;;;3.10;91.60;;;;;;5051875;28;20025;-89
2021/01/23 03:44:41;;;;;;;;;;;;;;;;;;;;;
2021/01/23 03:47:19;;;;;;;10.13;6.45;;;3.20;91.60;;;;;;5034574;28;20030;-86
2021/01/23 03:50:00;;;;;;;11.32;6.72;;;3.20;91.60;;;;;;5050335;28;20469;-88
2021/01/23 03:52:53;;;;;;;10.40;6.70;;;3.20;91.60;;;;;;5057260;28;20152;-86
2021/01/23 03:55:24;;;;;;;8.80;6.70;;;3.30;91.60;;;;;;5036465;28;20033;-86
2021/01/23 03:58:29;;;;;;;;;;;;;;;;;;;;;
2021/01/23 04:00:57;;;;;;;11.20;7.60;;;3.30;91.60;;;;;;5048534;28;20040;-86
2021/01/23 04:03:27;;;;;;;10.35;7.22;;;3.30;91.90;;;;;;5049105;28;20029;-86
2021/01/23 04:06:06;;;;;;;10.57;6.53;;;3.40;91.60;;;;;;5049938;28;20052;-86
2021/01/23 04:08:32;;;;;;;9.25;6.28;;;3.40;91.60;;;;;;5031895;28;20036;-85
2021/01/23 04:11:21;;;;;;;9.40;6.75;;;3.40;91.60;;;;;;5049662;28;20021;-86
2021/01/23 04:13:55;;;;;;;10.38;6.65;;;3.40;91.60;;;;;;5051928;28;20358;-86
2021/01/23 04:16:55;;;;;;;10.88;6.40;;;3.40;91.60;;;;;;5037152;28;20667;-87
2021/01/23 04:19:45;;;;;;;8.63;6.03;;;3.40;91.60;;;;;;5030748;28;20032;-87
2021/01/23 04:22:23;;;;;;;9.38;6.88;;;3.50;91.60;;;;;;5036043;28;20040;-87
2021/01/23 04:25:01;;;;;;;10.32;6.65;;;3.50;91.60;;;;;;5028429;28;20049;-88
2021/01/23 04:27:57;;;;;;;10.48;6.80;;;3.50;91.60;;;;;;5030495;28;20087;-86
2021/01/23 04:30:46;;;;;;;10.65;6.60;;;3.50;91.60;;;;;;5040161;28;20045;-86
2021/01/23 04:33:37;;;;;;;;;;;;;;;;;;;;;
2021/01/23 04:36:18;;;;;;;;;;;;;;;;;;;;;
2021/01/23 04:38:49;;;;;;;11.80;6.72;;;3.60;91.60;;;;;;5048115;28;20035;-88
2021/01/23 04:41:26;;;;;;;10.65;6.70;;;3.60;91.60;;;;;;5051144;28;20075;-87
2021/01/23 04:43:54;;;;;;;12.88;6.95;;;3.60;91.60;;;;;;5035278;28;20065;-87
2021/01/23 04:46:47;;;;;;;9.90;6.70;;;3.60;91.60;;;;;;5068056;28;20112;-87
2021/01/23 04:49:26;;;;;;;11.35;6.85;;;3.60;91.60;;;;;;5032907;28;20052;-89
2021/01/23 04:55:44;;;;;;;;;;;;;;;;;;;;;
2021/01/23 04:58:21;;;;;;;10.45;6.65;;;3.60;91.60;;;;;;5040111;28;20037;-86
2021/01/23 05:01:07;;;;;;;10.00;6.72;;;3.70;91.60;;;;;;5018925;28;20084;-88
2021/01/23 05:03:58;;;;;;;9.60;7.05;;;3.70;91.90;;;;;;5046959;28;20025;-86
2021/01/23 05:06:25;;;;;;;8.18;6.13;;;3.70;91.60;;;;;;5041874;28;20086;-87
2021/01/23 05:09:11;;;;;;;;;;;;;;;;;;;;;
2021/01/23 05:12:01;;;;;;;9.00;6.53;;;3.60;91.60;;;;;;5051968;28;20029;-86
2021/01/23 05:14:29;;;;;;;12.77;7.18;;;3.70;91.70;;;;;;5048582;28;20083;-86
2021/01/23 05:17:12;;;;;;;9.52;6.88;;;3.70;91.60;;;;;;5029314;28;20503;-85
2021/01/23 05:20:00;;;;;;;9.38;6.80;;;3.70;91.60;;;;;;5061244;28;20029;-86
2021/01/23 05:23:12;;;;;;;13.88;7.65;;;3.70;91.60;;;;;;5029025;28;20116;-86
2021/01/23 05:26:05;;;;;;;10.75;6.90;;;3.70;91.60;;;;;;5042303;28;20037;-87
2021/01/23 05:29:00;;;;;;;;;;;;;;;;;;;;;
2021/01/23 05:32:03;;;;;;;8.80;6.57;;;3.60;91.60;;;;;;5046485;28;20370;-86
2021/01/23 05:34:36;;;;;;;11.80;7.13;;;3.60;91.60;;;;;;5036195;28;20029;-87
2021/01/23 05:37:12;;;;;;;10.45;7.70;;;3.60;91.60;;;;;;5033318;28;20393;-86
2021/01/23 05:40:12;;;;;;;9.35;7.20;;;3.60;91.60;;;;;;5017081;28;20095;-87
2021/01/23 05:42:44;;;;;;;10.20;7.45;;;3.60;91.60;;;;;;5038317;28;20393;-87
2021/01/23 05:45:20;;;;;;;11.60;7.40;;;3.60;91.60;;;;;;5061052;28;20532;-87
2021/01/23 05:47:59;;;;;;;12.27;6.70;;;3.60;91.70;;;;;;5018938;28;20515;-87
2021/01/23 05:50:25;;;;;;;9.93;6.90;;;3.60;91.70;;;;;;5047900;28;20071;-86
2021/01/23 05:52:58;;;;;;;9.55;7.07;;;3.60;91.70;;;;;;5051758;28;20025;-86
2021/01/23 05:55:36;;;;;;;11.70;7.82;;;3.60;91.70;;;;;;5044011;28;20029;-87
2021/01/23 05:58:05;;;;;;;10.43;7.18;;;3.60;91.70;;;;;;5054712;28;20036;-89
2021/01/23 06:00:54;;;;;;;;;;;;;;;;;;;;;
2021/01/23 06:03:29;;;;;;;8.95;7.10;;;3.60;91.70;;;;;;5044796;28;20468;-86
2021/01/23 06:06:16;;;;;;;10.13;7.10;;;3.60;91.70;;;;;;5038073;28;20108;-86
2021/01/23 06:08:54;;;;;;;10.15;7.47;;;3.60;91.70;;;;;;5035138;28;20464;-87
2021/01/23 06:11:20;;;;;;;13.02;7.53;;;3.60;91.80;;;;;;5036170;28;20480;-86
2021/01/23 06:16:57;;;;;;;11.50;7.60;;;3.60;91.80;;;;;;5032922;28;20488;-86
2021/01/23 06:19:50;;;;;;;12.10;7.70;;;3.60;91.80;;;;;;5031679;28;20056;-86
2021/01/23 06:22:48;;;;;;;;;;;;;;;;;;;;;
2021/01/23 06:26:02;;;;;;;12.07;7.35;;;3.60;91.70;;;;;;5044345;28;20048;-85
2021/01/23 06:28:33;;;;;;;10.80;8.10;;;3.60;91.80;;;;;;5035347;28;20069;-87
2021/01/23 06:31:26;;;;;;;11.98;8.48;;;3.60;91.80;;;;;;5042454;28;20028;-86
2021/01/23 06:33:58;;;;;;;10.95;6.97;;;3.60;91.80;;;;;;5043311;28;20029;-86
2021/01/23 06:39:49;;;;;;;11.30;7.47;;;3.60;91.80;;;;;;5024307;28;20049;-86
2021/01/23 06:42:26;;;;;;;15.18;8.38;;;3.60;91.80;;;;;;5022358;28;20029;-86
2021/01/23 06:45:29;;;;;;;11.50;7.68;;;3.60;91.80;;;;;;5045596;28;20480;-86
2021/01/23 06:48:18;;;;;;;11.45;8.45;;;3.60;91.80;;;;;;5036641;28;20033;-86
2021/01/23 06:51:20;;;;;;;12.45;8.30;;;3.60;91.90;;;;;;5036111;28;20049;-86
2021/01/23 06:54:22;;;;;;;;;;;;;;;;;;;;;
2021/01/23 06:56:56;;;;;;;13.85;8.55;;;3.60;91.90;;;;;;5043709;28;20379;-86
2021/01/23 06:59:35;;;;;;;12.65;8.40;;;3.70;91.90;;;;;;5049573;28;20433;-87
2021/01/23 07:02:08;;;;;;;12.50;9.43;;;3.70;91.90;;;;;;5016347;28;20021;-86
2021/01/23 07:04:45;;;;;;;15.23;9.10;;;3.70;91.90;;;;;;5015017;28;20171;-86
2021/01/23 07:07:54;;;;;;;11.57;8.27;;;3.70;91.90;;;;;;5016838;28;20056;-86
2021/01/23 07:10:32;;;;;;;;;;;;;;;;;;;;;
2021/01/23 07:13:29;;;;;;;13.40;9.07;;;3.70;91.90;;;;;;5007691;28;20022;-86
2021/01/23 07:16:33;;;;;;;;;;;;;;;;;;;;;
2021/01/23 07:19:39;;;;;;;12.43;8.32;;;3.80;91.90;;;;;;5014718;28;20032;-85
2021/01/23 07:22:12;;;;;;;12.52;8.60;;;3.70;91.90;;;;;;5030305;28;20109;-86
2021/01/23 07:25:00;;;;;;;;;;;;;;;;;;;;;
2021/01/23 07:27:38;;;;;;;11.32;8.50;;;3.70;91.90;;;;;;5015606;28;20030;-85
2021/01/23 07:30:29;;;;;;;;;;;;;;;;;;;;;
2021/01/23 07:33:12;;;;;;;;;;;;;;;;;;;;;
2021/01/23 07:35:52;;;;;;;;;;;;;;;;;;;;;
2021/01/23 07:38:23;;;;;;;11.77;8.05;;;3.70;91.90;;;;;;5026490;28;20033;-86
2021/01/23 07:41:03;;;;;;;;;;;;;;;;;;;;;
2021/01/23 07:43:47;;;;;;;11.68;8.05;;;3.80;91.90;;;;;;5031176;28;20021;-86
2021/01/23 07:46:19;;;;;;;12.00;8.50;;;3.80;91.90;;;;;;4993087;28;20163;-89
2021/01/23 07:49:07;;;;;;;;;;;;;;;;;;;;;
2021/01/23 07:51:44;;;;;;;9.77;7.43;;;3.80;91.90;;;;;;5031073;28;20039;-85
2021/01/23 07:54:11;;;;;;;14.50;8.50;;;3.80;91.90;;;;;;5036573;28;20044;-86
2021/01/23 07:57:10;;;;;;;;;;;;;;;;;;;;;
2021/01/23 08:00:12;;;;;;;12.35;9.00;;;3.70;91.90;;;;;;5020564;28;20138;-88
2021/01/23 08:06:44;;;;;;;13.27;7.93;;;3.70;91.80;;;;;;5001983;28;20129;-88
2021/01/23 08:09:55;;;;;;;;;;;;;;;;;;;;;
2021/01/23 08:12:35;;;;;;;12.50;8.82;;;3.70;91.80;;;;;;5021602;28;20495;-90
2021/01/23 08:15:10;;;;;;;14.07;8.57;;;3.70;91.80;;;;;;5008653;28;20022;-88
2021/01/23 08:17:57;;;;;;;;;;;;;;;;;;;;;
2021/01/23 08:21:06;;;;;;;13.73;8.13;;;3.70;91.90;;;;;;5010091;28;20041;-89
2021/01/23 08:23:45;;;;;;;13.73;8.45;;;3.80;91.90;;;;;;4982070;28;20464;-89
2021/01/23 08:29:09;;;;;;;12.20;7.13;;;3.80;91.90;;;;;;5002853;28;20596;-91
2021/01/23 08:31:42;;;;;;;12.93;7.85;;;3.90;92.00;;;;;;5009191;28;20022;-89
2021/01/23 08:34:31;;;;;;;10.88;7.80;;;3.90;91.90;;;;;;4997474;28;20029;-89
2021/01/23 08:37:16;;;;;;;10.93;7.38;;;3.90;92.00;;;;;;5018042;28;20048;-89
2021/01/23 08:40:00;;;;;;;12.45;8.20;;;4.00;91.90;;;;;;4996518;28;20022;-88
2021/01/23 08:42:29;;;;;;;10.68;7.70;;;4.00;91.90;;;;;;4986407;28;20418;-88
2021/01/23 08:45:15;;;;;;;11.85;7.07;;;4.00;91.90;;;;;;5012454;28;20153;-90
2021/01/23 08:48:09;;;;;;;10.25;7.25;;;4.00;91.90;;;;;;4993191;28;20117;-88
2021/01/23 08:53:51;;;;;;;9.73;6.68;;;4.00;91.90;;;;;;5013808;28;20518;-88
2021/01/23 08:56:27;;;;;;;10.52;6.68;;;4.00;91.90;;;;;;5016393;28;20033;-89
2021/01/23 08:59:13;;;;;;;;;;;;;;;;;;;;;
2021/01/23 09:01:55;;;;;;;10.40;6.70;;;4.10;91.90;;;;;;5017846;28;20389;-89
2021/01/23 09:04:33;;;;;;;12.60;7.22;;;4.10;91.90;;;;;;4980246;28;20040;-89
2021/01/23 09:07:12;;;;;;;7.95;6.35;;;4.10;91.90;;;;;;5014575;28;20032;-87
2021/01/23 09:13:06;;;;;;;;;;;;;;;;;;;;;
2021/01/23 09:15:50;;;;;;;;;;;;;;;;;;;;;
2021/01/23 09:18:32;;;;;;;10.65;6.78;;;4.20;91.80;;;;;;4997212;28;20041;-89
2021/01/23 09:21:16;;;;;;;10.38;6.60;;;4.30;91.80;;;;;;5010332;28;20044;-88
2021/01/23 09:24:24;;;;;;;;;;;;;;;;;;;;;
2021/01/23 09:30:01;;;;;;;;;;;;;;;;;;;;;
2021/01/23 09:32:50;;;;;;;;;;;;;;;;;;;;;
2021/01/23 09:35:22;;;;;;;17.83;11.50;;;4.30;91.70;;;;;;5006481;28;20207;-88
2021/01/23 09:37:52;;;;;;;18.75;10.63;;;4.30;91.70;;;;;;5012737;28;20112;-88
2021/01/23 09:41:12;;;;;;;15.55;9.30;;;4.30;91.70;;;;;;5016177;28;20071;-89
2021/01/23 09:44:31;;;;;;;;;;;;;;;;;;;;;
2021/01/23 09:47:09;;;;;;;12.77;6.65;;;4.40;91.80;;;;;;5012248;28;20051;-92
2021/01/23 09:50:33;;;;;;;9.90;6.40;;;4.40;91.70;;;;;;4996518;28;20053;-89
2021/01/23 09:57:09;;;;;;;;;;;;;;;;;;;;;
2021/01/23 10:06:55;;;;;;;;;;;;;;;;;;;;;
2021/01/23 10:10:03;;;;;;;;;;;;;;;;;;;;;
2021/01/23 10:16:32;;;;;;;;;;;;;;;;;;;;;
2021/01/23 10:29:41;;;;;;;11.02;4.93;;;5.10;91.20;;;;;;5029199;28;20037;-91
2021/01/23 10:32:54;;;;;;;6.70;4.63;;;5.10;91.10;;;;;;5026436;28;20065;-91
2021/01/23 10:39:28;;;;;;;7.78;4.68;;;5.20;91.00;;;;;;5024599;28;20038;-90
2021/01/23 10:45:43;;;;;;;7.18;5.38;;;5.30;90.80;;;;;;5024203;28;20116;-89
2021/01/23 10:52:21;;;;;;;8.68;4.80;;;5.40;90.70;;;;;;4943925;28;20043;-91
2021/01/23 10:59:00;;;;;;;;;;;;;;;;;;;;;
2021/01/23 11:02:01;;;;;;;10.85;5.93;;;5.60;90.40;;;;;;5032189;28;20052;-90
2021/01/23 11:04:59;;;;;;;9.20;5.35;;;5.60;90.30;;;;;;4977549;28;20044;-91
2021/01/23 11:14:22;;;;;;;;;;;;;;;;;;;;;
2021/01/23 11:24:32;;;;;;;7.65;3.65;;;5.90;90.00;;;;;;4989156;28;20037;-90
2021/01/23 11:27:20;;;;;;;;;;;;;;;;;;;;;
2021/01/23 11:30:40;;;;;;;8.27;3.63;;;6.00;89.80;;;;;;5031238;28;20029;-90
2021/01/23 11:33:47;;;;;;;8.85;3.60;;;6.00;89.70;;;;;;4993706;28;20068;-90
2021/01/23 11:36:37;;;;;;;;;;;;;;;;;;;;;
2021/01/23 11:39:40;;;;;;;;;;;;;;;;;;;;;
2021/01/23 11:42:48;;;;;;;5.55;3.30;;;6.10;89.10;;;;;;5015837;28;20046;-91
2021/01/23 11:46:10;;;;;;;;;;;;;;;;;;;;;
2021/01/23 11:55:30;;;;;;;8.25;3.67;;;6.10;88.40;;;;;;5024846;28;20120;-90
2021/01/23 11:58:51;;;;;;;6.47;3.97;;;6.10;88.40;;;;;;4995822;28;20060;-90
2021/01/23 12:04:56;;;;;;;;;;;6.10;88.40;;;;;;5011545;28;20034;-92
2021/01/23 12:07:47;;;;;;;5.28;3.13;;;6.10;88.10;;;;;;5026193;28;20348;-90
2021/01/23 12:17:20;;;;;;;;;;;;;;;;;;;;;
2021/01/23 12:20:10;;;;;;;6.15;3.75;;;6.10;88.10;;;;;;5020113;28;20038;-90
2021/01/23 12:26:17;;;;;;;4.60;3.13;;;6.10;88.00;;;;;;5014209;28;20384;-90
2021/01/23 12:29:23;;;;;;;7.78;3.92;;;6.10;88.00;;;;;;4985653;28;20466;-92
2021/01/23 12:32:34;;;;;;;;;;;;;;;;;;;;;
2021/01/23 12:38:40;;;;;;;5.28;3.58;;;6.00;87.80;;;;;;4950734;29;20102;-90
2021/01/23 12:41:53;;;;;;;;;;;;;;;;;;;;;
2021/01/23 12:45:00;;;;;;;7.25;3.63;;;6.10;87.90;;;;;;4946236;29;20036;-90
2021/01/23 12:48:27;;;;;;;;;;;;;;;;;;;;;
2021/01/23 12:53:57;;;;;;;;;;;;;;;;;;;;;
2021/01/23 12:56:45;;;;;;;;;;;;;;;;;;;;;
2021/01/23 12:59:43;;;;;;;7.93;4.07;;;6.10;87.80;;;;;;5013354;28;20445;-90
2021/01/23 13:05:13;;;;;;;5.00;3.78;;;6.10;87.60;;;;;;5037903;28;20057;-90
2021/01/23 13:08:27;;;;;;;;;;;;;;;;;;;;;
2021/01/23 13:11:18;;;;;;;6.93;4.28;;;6.10;87.60;;;;;;5048359;28;20044;-91
2021/01/23 13:14:12;;;;;;;6.63;3.72;;;6.10;87.50;;;;;;5036529;28;20033;-89
2021/01/23 13:17:02;;;;;;;7.03;4.07;;;6.10;87.50;;;;;;5048551;28;20392;-90
2021/01/23 13:19:31;;;;;;;7.72;3.95;;;6.10;87.50;;;;;;5041996;28;20555;-90
2021/01/23 13:22:30;;;;;;;;;;;;;;;;;;;;;
2021/01/23 13:25:14;;;;;;;;;;;;;;;;;;;;;
2021/01/23 13:28:05;;;;;;;;;;;;;;;;;;;;;
2021/01/23 13:30:47;;;;;;;;;;;;;;;;;;;;;
2021/01/23 13:33:36;;;;;;;;;;;;;;;;;;;;;
2021/01/23 13:36:11;;;;;;;8.02;3.88;;;6.10;87.00;;;;;;5057547;28;20097;-88
2021/01/23 13:38:50;;;;;;;;;;;;;;;;;;;;;
2021/01/23 13:41:57;;;;;;;;;;;;;;;;;;;;;
2021/01/23 13:44:32;;;;;;;10.20;4.00;;;6.00;86.60;;;;;;5065476;28;20049;-88
2021/01/23 13:51:05;;;;;;;7.55;4.13;;;6.00;86.60;;;;;;5041009;28;20049;-91
2021/01/23 13:53:16;;;;;;;4.53;3.53;;;6.10;86.80;;;;;;5043539;28;20045;-91
2021/01/23 13:56:17;;;;;;;7.85;4.00;;;6.00;86.70;;;;;;5067534;28;20017;-92
2021/01/23 14:02:41;;;;;;;6.30;3.58;;;6.10;86.80;;;;;;5049632;28;20060;-91
2021/01/23 14:05:17;;;;;;;7.03;3.78;;;6.10;86.70;;;;;;5009673;28;20100;-90
2021/01/23 14:08:14;;;;;;;6.18;3.15;;;6.10;86.70;;;;;;5003968;28;20030;-87
2021/01/23 14:11:22;;;;;;;5.25;3.30;;;6.10;86.80;;;;;;5028375;28;20506;-91
2021/01/23 14:14:19;;;;;;;;;;;;;;;;;;;;;
2021/01/23 14:24:16;;;;;;;;;;;6.10;87.00;;;;;;5032257;28;20037;-89
2021/01/23 14:27:32;;;;;;;;;;;;;;;;;;;;;
2021/01/23 14:30:52;;;;;;;;;;;;;;;;;;;;;
2021/01/23 14:37:21;;;;;;;;;;;;;;;;;;;;;
2021/01/23 14:54:06;;;;;;;;;;;;;;;;;;;;;
2021/01/23 14:56:40;;;;;;;;;;;;;;;;;;;;;
2021/01/23 15:02:30;;;;;;;;;;;5.90;87.20;;;;;;4991554;28;20097;-92
2021/01/23 15:05:41;;;;;;;9.13;4.55;;;5.90;87.20;;;;;;4974373;28;19906;-90
2021/01/23 15:11:54;;;;;;;;;;;;;;;;;;;;;
2021/01/23 15:14:24;;;;;;;6.80;3.83;;;5.80;87.40;;;;;;4994287;28;20124;-91
2021/01/23 15:21:01;;;;;;;7.82;4.38;;;5.80;87.30;;;;;;4925040;28;20054;-91
2021/01/23 15:23:41;;;;;;;8.48;4.63;;;5.80;87.20;;;;;;4993638;28;20143;-93
2021/01/23 15:26:52;;;;;;;8.57;4.65;;;5.70;87.20;;;;;;5019505;28;20026;-92
2021/01/23 15:33:06;;;;;;;9.30;4.65;;;5.70;87.50;;;;;;5028763;28;20034;-90
2021/01/23 15:36:23;;;;;;;6.88;4.82;;;5.70;87.70;;;;;;5008635;28;20038;-92
2021/01/23 15:39:00;;;;;;;7.28;5.20;;;5.60;87.80;;;;;;5012694;28;20043;-91
2021/01/23 15:41:45;;;;;;;8.57;4.70;;;5.60;87.90;;;;;;5017348;28;20095;-92
2021/01/23 15:44:22;;;;;;;7.93;4.95;;;5.60;88.00;;;;;;5002550;28;20041;-89
2021/01/23 15:47:14;;;;;;;;;;;;;;;;;;;;;
2021/01/23 15:49:52;;;;;;;14.65;5.78;;;5.60;88.30;;;;;;5025789;28;20117;-89
2021/01/23 15:53:17;;;;;;;;;;;;;;;;;;;;;
2021/01/23 15:56:21;;;;;;;12.20;6.80;;;5.50;88.30;;;;;;5034642;28;20536;-90
2021/01/23 16:05:33;;;;;;;12.80;8.25;;;5.50;88.70;;;;;;5015946;28;20401;-91
2021/01/23 16:08:03;;;;;;;9.38;6.80;;;5.50;88.70;;;;;;5000088;28;20033;-89
2021/01/23 16:10:48;;;;;;;10.82;5.57;;;5.50;88.80;;;;;;5016844;28;20034;-89
2021/01/23 16:13:21;;;;;;;9.05;5.47;;;5.50;89.00;;;;;;5019554;28;20034;-88
2021/01/23 16:16:34;;;;;;;;;;;;;;;;;;;;;
2021/01/23 16:19:00;;;;;;;9.10;5.55;;;5.40;89.10;;;;;;5019164;28;20494;-88
2021/01/23 16:21:29;;;;;;;7.00;5.35;;;5.50;89.20;;;;;;5009141;28;20112;-89
2021/01/23 16:23:55;;;;;;;9.20;5.13;;;5.50;89.20;;;;;;5003862;28;20147;-88
2021/01/23 16:26:23;;;;;;;8.43;5.05;;;5.40;89.10;;;;;;5009789;28;20025;-88
2021/01/23 16:28:59;;;;;;;9.98;5.60;;;5.50;89.20;;;;;;5006189;28;20037;-89
2021/01/23 16:31:32;;;;;;;7.95;5.75;;;5.50;89.20;;;;;;5010518;28;20394;-89
2021/01/23 16:33:58;;;;;;;9.57;6.05;;;5.50;89.20;;;;;;5004257;28;20037;-89
2021/01/23 16:36:26;;;;;;;8.23;5.60;;;5.50;89.20;;;;;;5020970;28;20492;-89
2021/01/23 16:38:55;;;;;;;9.27;6.45;;;5.50;89.30;;;;;;4997442;28;20040;-89
2021/01/23 16:41:29;;;;;;;9.57;6.18;;;5.50;89.40;;;;;;5014600;28;20053;-88
2021/01/23 16:43:58;;;;;;;9.18;5.82;;;5.50;89.40;;;;;;5008402;28;20018;-88
2021/01/23 16:46:30;;;;;;;11.45;5.53;;;5.50;89.50;;;;;;5012543;28;20120;-89
2021/01/23 16:48:59;;;;;;;7.57;5.97;;;5.50;89.50;;;;;;5006844;28;20024;-89
2021/01/23 16:51:28;;;;;;;14.65;5.95;;;5.50;89.60;;;;;;5005752;28;20496;-87
2021/01/23 16:54:05;;;;;;;8.63;5.78;;;5.50;89.60;;;;;;5025927;28;20504;-87
2021/01/23 16:56:38;;;;;;;8.85;5.47;;;5.40;89.70;;;;;;4995713;28;20034;-88
2021/01/23 16:59:04;;;;;;;10.57;6.25;;;5.50;89.70;;;;;;5017760;28;20025;-88
2021/01/23 17:01:30;;;;;;;8.65;5.68;;;5.50;89.80;;;;;;5020450;28;20045;-88
2021/01/23 17:03:58;;;;;;;10.65;6.07;;;5.40;89.70;;;;;;5042953;28;20079;-88
2021/01/23 17:06:29;;;;;;;11.50;6.30;;;5.40;89.80;;;;;;5058060;28;20025;-88
2021/01/23 17:09:10;;;;;;;;;;;;;;;;;;;;;
2021/01/23 17:11:38;;;;;;;9.32;6.18;;;5.40;89.80;;;;;;5041469;28;20048;-89
2021/01/23 17:14:19;;;;;;;;;;;;;;;;;;;;;
2021/01/23 17:16:47;;;;;;;8.05;6.07;;;5.40;89.80;;;;;;5047539;28;20476;-87
2021/01/23 17:19:24;;;;;;;9.02;6.10;;;5.30;89.70;;;;;;5032758;28;20029;-89
2021/01/23 17:21:55;;;;;;;8.65;6.20;;;5.30;89.70;;;;;;5031158;28;20052;-89
2021/01/23 17:24:21;;;;;;;12.18;7.00;;;5.30;89.70;;;;;;5044777;28;20026;-88
2021/01/23 17:26:47;;;;;;;9.77;7.18;;;5.30;89.60;;;;;;5041249;28;20040;-89
2021/01/23 17:29:20;;;;;;;11.63;7.18;;;5.20;89.50;;;;;;5048531;28;20061;-89
2021/01/23 17:31:49;;;;;;;10.70;7.47;;;5.30;89.60;;;;;;5035181;28;20540;-90
2021/01/23 17:34:17;;;;;;;10.95;7.30;;;5.20;89.50;;;;;;5071832;28;20029;-88
2021/01/23 17:36:44;;;;;;;11.50;7.78;;;5.20;89.50;;;;;;5070043;28;20029;-89
2021/01/23 17:39:10;;;;;;;12.30;8.27;;;5.20;89.50;;;;;;5071716;28;20103;-88
2021/01/23 17:41:45;;;;;;;11.52;8.27;;;5.20;89.50;;;;;;5071176;28;20091;-86
2021/01/23 17:44:21;;;;;;;;;;;;;;;;;;;;;
2021/01/23 17:46:51;;;;;;;14.85;10.27;;;5.10;89.60;;;;;;5056363;28;20404;-87
2021/01/23 17:49:32;;;;;;;12.80;9.65;;;5.10;89.60;;;;;;5052958;28;20125;-87
2021/01/23 17:51:58;;;;;;;14.95;9.65;;;5.00;89.60;;;;;;5068651;28;20052;-88
2021/01/23 17:54:32;;;;;;;14.57;9.40;;;5.00;89.60;;;;;;5030540;28;20036;-88
2021/01/23 17:57:02;;;;;;;15.90;9.82;;;5.00;89.70;;;;;;5034619;28;20060;-88
2021/01/23 17:59:28;;;;;;;14.55;9.93;;;5.00;89.70;;;;;;5051084;28;20042;-87
2021/01/23 18:02:04;;;;;;;15.75;10.85;;;5.00;89.80;;;;;;5048172;28;20056;-88
2021/01/23 18:04:33;;;;;;;15.18;11.25;;;4.90;89.70;;;;;;5054300;28;20037;-87
2021/01/23 18:07:06;;;;;;;13.52;10.38;;;5.00;89.80;;;;;;5052258;28;20053;-88
2021/01/23 18:09:40;;;;;;;13.25;10.25;;;4.90;89.80;;;;;;5051497;28;20037;-89
2021/01/23 18:12:12;;;;;;;13.57;9.82;;;4.90;89.80;;;;;;5042206;28;20029;-87
2021/01/23 18:14:58;;;;;;;16.70;10.13;;;4.90;89.80;;;;;;5045093;28;20087;-89
2021/01/23 18:17:41;;;;;;;16.38;9.88;;;4.90;89.90;;;;;;5051437;28;20037;-88
2021/01/23 18:20:26;;;;;;;12.60;9.35;;;4.80;89.80;;;;;;5036498;28;20040;-89
2021/01/23 18:23:03;;;;;;;13.70;9.30;;;4.80;89.90;;;;;;5051100;28;20033;-89
2021/01/23 18:25:52;;;;;;;13.82;9.93;;;4.80;89.90;;;;;;5049574;28;20056;-87
2021/01/23 18:28:23;;;;;;;14.07;9.93;;;4.80;89.90;;;;;;5054588;28;20067;-87
2021/01/23 18:31:00;;;;;;;14.73;10.15;;;4.80;90.00;;;;;;5056308;28;20105;-89
2021/01/23 18:33:33;;;;;;;14.52;9.95;;;4.70;90.00;;;;;;5053431;28;20029;-87
2021/01/23 18:36:09;;;;;;;;;;;;;;;;;;;;;
2021/01/23 18:38:58;;;;;;;16.88;10.43;;;4.70;90.00;;;;;;5041371;28;20031;-88
2021/01/23 18:41:38;;;;;;;17.42;11.07;;;4.70;90.10;;;;;;5035333;28;20040;-88
2021/01/23 18:44:13;;;;;;;15.55;10.60;;;4.70;90.10;;;;;;5049236;28;20025;-89
2021/01/23 18:46:52;;;;;;;14.50;9.60;;;4.70;90.10;;;;;;5028729;28;20028;-87
2021/01/23 18:49:26;;;;;;;13.80;10.45;;;4.70;90.10;;;;;;5047571;28;20033;-87
2021/01/23 18:52:02;;;;;;;18.83;11.45;;;4.70;90.10;;;;;;5043463;28;20040;-87
2021/01/23 18:54:39;;;;;;;14.98;10.90;;;4.70;90.10;;;;;;5046200;28;20553;-88
2021/01/23 18:57:15;;;;;;;;;;;;;;;;;;;;;
2021/01/23 19:00:05;;;;;;;18.23;11.20;;;4.60;90.00;;;;;;5054610;28;20029;-88
2021/01/23 19:02:40;;;;;;;17.23;11.68;;;4.70;90.10;;;;;;5050654;28;20049;-87
2021/01/23 19:05:18;;;;;;;;;;;;;;;;;;;;;